sensor_id;sensor_type;location;lat;lon;timestamp;P1;durP1;ratioP1;P2;durP2;ratioP2
24030;SDS011;12240;51.142;22.486;2022-11-25T00:01:31;42.25;;;14.63;;
24030;SDS011;12240;51.142;22.486;2022-11-25T00:04:00;44.42;;;15.38;;
24030;SDS011;12240;51.142;22.486;2022-11-25T00:06:30;43.40;;;14.75;;
24030;SDS011;12240;51.142;22.486;2022-11-25T00:11:34;48.65;;;17.33;;
24030;SDS011;12240;51.142;22.486;2022-11-25T00:14:12;49.70;;;17.08;;
24030;SDS011;12240;51.142;22.486;2022-11-25T00:16:41;44.10;;;15.75;;
24030;SDS011;12240;51.142;22.486;2022-11-25T00:19:14;40.22;;;15.93;;
24030;SDS011;12240;51.142;22.486;2022-11-25T00:21:43;46.55;;;16.17;;
24030;SDS011;12240;51.142;22.486;2022-11-25T00:24:13;48.85;;;17.10;;
24030;SDS011;12240;51.142;22.486;2022-11-25T00:26:42;45.80;;;16.20;;
24030;SDS011;12240;51.142;22.486;2022-11-25T00:29:10;44.38;;;15.82;;
24030;SDS011;12240;51.142;22.486;2022-11-25T00:31:40;46.63;;;16.17;;
24030;SDS011;12240;51.142;22.486;2022-11-25T00:34:10;48.10;;;17.02;;
24030;SDS011;12240;51.142;22.486;2022-11-25T00:36:40;51.08;;;17.15;;
24030;SDS011;12240;51.142;22.486;2022-11-25T00:39:10;42.15;;;14.98;;
24030;SDS011;12240;51.142;22.486;2022-11-25T00:41:43;45.22;;;15.60;;
24030;SDS011;12240;51.142;22.486;2022-11-25T00:44:31;44.50;;;14.02;;
24030;SDS011;12240;51.142;22.486;2022-11-25T00:47:04;39.05;;;14.05;;
24030;SDS011;12240;51.142;22.486;2022-11-25T00:49:39;47.25;;;15.60;;
24030;SDS011;12240;51.142;22.486;2022-11-25T00:52:09;40.10;;;14.02;;
24030;SDS011;12240;51.142;22.486;2022-11-25T00:54:43;46.83;;;15.13;;
24030;SDS011;12240;51.142;22.486;2022-11-25T00:57:14;47.40;;;14.37;;
24030;SDS011;12240;51.142;22.486;2022-11-25T00:59:44;44.25;;;14.68;;
24030;SDS011;12240;51.142;22.486;2022-11-25T01:02:13;45.17;;;16.08;;
24030;SDS011;12240;51.142;22.486;2022-11-25T01:04:43;48.90;;;16.30;;
24030;SDS011;12240;51.142;22.486;2022-11-25T01:07:15;40.15;;;13.98;;
24030;SDS011;12240;51.142;22.486;2022-11-25T01:09:43;40.63;;;15.68;;
24030;SDS011;12240;51.142;22.486;2022-11-25T01:12:11;39.15;;;13.60;;
24030;SDS011;12240;51.142;22.486;2022-11-25T01:14:39;44.40;;;16.00;;
24030;SDS011;12240;51.142;22.486;2022-11-25T01:17:08;44.60;;;15.43;;
24030;SDS011;12240;51.142;22.486;2022-11-25T01:19:35;47.10;;;16.42;;
24030;SDS011;12240;51.142;22.486;2022-11-25T01:22:07;49.28;;;17.15;;
24030;SDS011;12240;51.142;22.486;2022-11-25T01:24:35;48.65;;;15.60;;
24030;SDS011;12240;51.142;22.486;2022-11-25T01:27:04;45.95;;;16.98;;
24030;SDS011;12240;51.142;22.486;2022-11-25T01:29:32;48.42;;;17.10;;
24030;SDS011;12240;51.142;22.486;2022-11-25T01:32:00;51.13;;;17.27;;
24030;SDS011;12240;51.142;22.486;2022-11-25T01:34:28;62.42;;;18.83;;
24030;SDS011;12240;51.142;22.486;2022-11-25T01:37:02;51.67;;;17.20;;
24030;SDS011;12240;51.142;22.486;2022-11-25T01:39:30;45.83;;;15.95;;
24030;SDS011;12240;51.142;22.486;2022-11-25T01:42:00;45.05;;;15.48;;
24030;SDS011;12240;51.142;22.486;2022-11-25T01:44:29;48.08;;;16.40;;
24030;SDS011;12240;51.142;22.486;2022-11-25T01:49:53;53.67;;;16.52;;
24030;SDS011;12240;51.142;22.486;2022-11-25T01:52:36;46.75;;;16.80;;
24030;SDS011;12240;51.142;22.486;2022-11-25T02:00:47;46.63;;;16.13;;
24030;SDS011;12240;51.142;22.486;2022-11-25T02:03:23;48.47;;;14.63;;
24030;SDS011;12240;51.142;22.486;2022-11-25T02:08:49;46.22;;;14.80;;
24030;SDS011;12240;51.142;22.486;2022-11-25T02:11:27;40.78;;;15.68;;
24030;SDS011;12240;51.142;22.486;2022-11-25T02:13:56;49.22;;;16.23;;
24030;SDS011;12240;51.142;22.486;2022-11-25T02:16:25;41.72;;;15.27;;
24030;SDS011;12240;51.142;22.486;2022-11-25T02:18:53;48.88;;;17.17;;
24030;SDS011;12240;51.142;22.486;2022-11-25T02:21:30;50.97;;;16.23;;
24030;SDS011;12240;51.142;22.486;2022-11-25T02:24:33;43.35;;;15.40;;
24030;SDS011;12240;51.142;22.486;2022-11-25T02:27:13;50.97;;;17.27;;
24030;SDS011;12240;51.142;22.486;2022-11-25T02:29:42;54.40;;;17.50;;
24030;SDS011;12240;51.142;22.486;2022-11-25T02:32:10;53.88;;;18.10;;
24030;SDS011;12240;51.142;22.486;2022-11-25T02:34:46;49.55;;;17.00;;
24030;SDS011;12240;51.142;22.486;2022-11-25T02:37:14;55.42;;;17.98;;
24030;SDS011;12240;51.142;22.486;2022-11-25T02:39:46;58.67;;;19.67;;
24030;SDS011;12240;51.142;22.486;2022-11-25T02:42:16;67.22;;;19.35;;
24030;SDS011;12240;51.142;22.486;2022-11-25T02:44:49;56.90;;;18.35;;
24030;SDS011;12240;51.142;22.486;2022-11-25T02:47:17;57.65;;;18.45;;
24030;SDS011;12240;51.142;22.486;2022-11-25T02:49:45;49.83;;;17.63;;
24030;SDS011;12240;51.142;22.486;2022-11-25T02:52:13;67.90;;;21.23;;
24030;SDS011;12240;51.142;22.486;2022-11-25T02:54:41;62.40;;;18.88;;
24030;SDS011;12240;51.142;22.486;2022-11-25T02:57:09;64.20;;;20.02;;
24030;SDS011;12240;51.142;22.486;2022-11-25T02:59:37;65.57;;;19.83;;
24030;SDS011;12240;51.142;22.486;2022-11-25T03:02:05;68.65;;;19.88;;
24030;SDS011;12240;51.142;22.486;2022-11-25T03:04:33;68.40;;;19.85;;
24030;SDS011;12240;51.142;22.486;2022-11-25T03:07:02;69.63;;;20.55;;
24030;SDS011;12240;51.142;22.486;2022-11-25T03:09:30;74.95;;;21.20;;
24030;SDS011;12240;51.142;22.486;2022-11-25T03:11:58;61.08;;;18.48;;
24030;SDS011;12240;51.142;22.486;2022-11-25T03:14:45;72.05;;;20.90;;
24030;SDS011;12240;51.142;22.486;2022-11-25T03:17:13;70.38;;;19.95;;
24030;SDS011;12240;51.142;22.486;2022-11-25T03:19:42;63.65;;;18.88;;
24030;SDS011;12240;51.142;22.486;2022-11-25T03:22:11;64.97;;;19.90;;
24030;SDS011;12240;51.142;22.486;2022-11-25T03:24:39;63.33;;;18.58;;
24030;SDS011;12240;51.142;22.486;2022-11-25T03:27:07;66.60;;;18.65;;
24030;SDS011;12240;51.142;22.486;2022-11-25T03:29:37;68.07;;;20.13;;
24030;SDS011;12240;51.142;22.486;2022-11-25T03:32:05;67.15;;;19.15;;
24030;SDS011;12240;51.142;22.486;2022-11-25T03:37:05;60.90;;;18.02;;
24030;SDS011;12240;51.142;22.486;2022-11-25T03:39:33;61.97;;;17.77;;
24030;SDS011;12240;51.142;22.486;2022-11-25T03:42:02;71.25;;;20.45;;
24030;SDS011;12240;51.142;22.486;2022-11-25T03:44:30;64.65;;;19.67;;
24030;SDS011;12240;51.142;22.486;2022-11-25T03:46:59;65.97;;;20.38;;
24030;SDS011;12240;51.142;22.486;2022-11-25T03:49:28;70.28;;;21.90;;
24030;SDS011;12240;51.142;22.486;2022-11-25T03:51:56;73.50;;;20.30;;
24030;SDS011;12240;51.142;22.486;2022-11-25T03:54:25;64.93;;;19.63;;
24030;SDS011;12240;51.142;22.486;2022-11-25T03:57:13;66.50;;;18.73;;
24030;SDS011;12240;51.142;22.486;2022-11-25T03:59:42;68.88;;;21.98;;
24030;SDS011;12240;51.142;22.486;2022-11-25T04:02:10;69.63;;;20.55;;
24030;SDS011;12240;51.142;22.486;2022-11-25T04:04:38;68.10;;;21.02;;
24030;SDS011;12240;51.142;22.486;2022-11-25T04:07:07;64.47;;;20.17;;
24030;SDS011;12240;51.142;22.486;2022-11-25T04:09:36;69.63;;;20.05;;
24030;SDS011;12240;51.142;22.486;2022-11-25T04:12:06;73.53;;;19.35;;
24030;SDS011;12240;51.142;22.486;2022-11-25T04:15:04;64.32;;;19.02;;
24030;SDS011;12240;51.142;22.486;2022-11-25T04:17:33;71.18;;;20.02;;
24030;SDS011;12240;51.142;22.486;2022-11-25T04:20:01;70.60;;;21.50;;
24030;SDS011;12240;51.142;22.486;2022-11-25T04:22:30;70.40;;;20.75;;
24030;SDS011;12240;51.142;22.486;2022-11-25T04:25:00;64.35;;;19.42;;
24030;SDS011;12240;51.142;22.486;2022-11-25T04:27:28;72.85;;;21.30;;
24030;SDS011;12240;51.142;22.486;2022-11-25T04:29:56;64.00;;;19.27;;
24030;SDS011;12240;51.142;22.486;2022-11-25T04:32:24;76.15;;;22.77;;
24030;SDS011;12240;51.142;22.486;2022-11-25T04:34:53;70.95;;;21.38;;
24030;SDS011;12240;51.142;22.486;2022-11-25T04:37:24;71.40;;;20.33;;
24030;SDS011;12240;51.142;22.486;2022-11-25T04:39:53;57.85;;;19.13;;
24030;SDS011;12240;51.142;22.486;2022-11-25T04:42:22;64.85;;;19.17;;
24030;SDS011;12240;51.142;22.486;2022-11-25T04:45:06;68.38;;;21.65;;
24030;SDS011;12240;51.142;22.486;2022-11-25T04:47:53;66.95;;;21.63;;
24030;SDS011;12240;51.142;22.486;2022-11-25T04:50:22;75.30;;;21.25;;
24030;SDS011;12240;51.142;22.486;2022-11-25T04:53:02;71.15;;;21.33;;
24030;SDS011;12240;51.142;22.486;2022-11-25T04:55:30;64.53;;;20.48;;
24030;SDS011;12240;51.142;22.486;2022-11-25T04:58:02;67.25;;;19.33;;
24030;SDS011;12240;51.142;22.486;2022-11-25T05:00:33;60.58;;;19.35;;
24030;SDS011;12240;51.142;22.486;2022-11-25T05:03:03;64.10;;;18.30;;
24030;SDS011;12240;51.142;22.486;2022-11-25T05:05:36;67.85;;;20.02;;
24030;SDS011;12240;51.142;22.486;2022-11-25T05:08:06;64.32;;;19.35;;
24030;SDS011;12240;51.142;22.486;2022-11-25T05:10:35;59.88;;;18.25;;
24030;SDS011;12240;51.142;22.486;2022-11-25T05:13:02;63.38;;;19.70;;
24030;SDS011;12240;51.142;22.486;2022-11-25T05:19:23;68.43;;;18.55;;
24030;SDS011;12240;51.142;22.486;2022-11-25T05:21:52;63.92;;;17.63;;
24030;SDS011;12240;51.142;22.486;2022-11-25T05:24:20;56.42;;;17.00;;
24030;SDS011;12240;51.142;22.486;2022-11-25T05:26:50;61.63;;;18.00;;
24030;SDS011;12240;51.142;22.486;2022-11-25T05:29:21;58.72;;;18.40;;
24030;SDS011;12240;51.142;22.486;2022-11-25T05:31:50;59.70;;;17.77;;
24030;SDS011;12240;51.142;22.486;2022-11-25T05:34:18;69.25;;;18.90;;
24030;SDS011;12240;51.142;22.486;2022-11-25T05:36:47;61.92;;;18.30;;
24030;SDS011;12240;51.142;22.486;2022-11-25T05:39:15;59.28;;;17.45;;
24030;SDS011;12240;51.142;22.486;2022-11-25T05:42:02;61.70;;;17.13;;
24030;SDS011;12240;51.142;22.486;2022-11-25T05:44:30;69.35;;;18.27;;
24030;SDS011;12240;51.142;22.486;2022-11-25T05:46:58;60.45;;;17.08;;
24030;SDS011;12240;51.142;22.486;2022-11-25T05:49:26;64.20;;;18.35;;
24030;SDS011;12240;51.142;22.486;2022-11-25T05:51:56;61.72;;;18.35;;
24030;SDS011;12240;51.142;22.486;2022-11-25T05:54:27;62.50;;;18.20;;
24030;SDS011;12240;51.142;22.486;2022-11-25T05:56:56;69.80;;;18.10;;
24030;SDS011;12240;51.142;22.486;2022-11-25T05:59:27;62.08;;;17.33;;
24030;SDS011;12240;51.142;22.486;2022-11-25T06:02:10;64.18;;;17.40;;
24030;SDS011;12240;51.142;22.486;2022-11-25T06:04:39;64.47;;;16.50;;
24030;SDS011;12240;51.142;22.486;2022-11-25T06:07:08;63.33;;;16.98;;
24030;SDS011;12240;51.142;22.486;2022-11-25T06:09:36;62.53;;;17.02;;
24030;SDS011;12240;51.142;22.486;2022-11-25T06:12:05;61.22;;;18.40;;
24030;SDS011;12240;51.142;22.486;2022-11-25T06:14:38;65.10;;;17.77;;
24030;SDS011;12240;51.142;22.486;2022-11-25T06:17:06;66.57;;;18.88;;
24030;SDS011;12240;51.142;22.486;2022-11-25T06:19:43;60.13;;;17.50;;
24030;SDS011;12240;51.142;22.486;2022-11-25T06:22:11;69.82;;;18.33;;
24030;SDS011;12240;51.142;22.486;2022-11-25T06:24:39;58.78;;;16.35;;
24030;SDS011;12240;51.142;22.486;2022-11-25T06:27:08;62.78;;;17.73;;
24030;SDS011;12240;51.142;22.486;2022-11-25T06:29:38;67.28;;;18.42;;
24030;SDS011;12240;51.142;22.486;2022-11-25T06:32:06;59.92;;;17.73;;
24030;SDS011;12240;51.142;22.486;2022-11-25T06:34:57;58.20;;;15.17;;
24030;SDS011;12240;51.142;22.486;2022-11-25T06:37:43;61.05;;;16.65;;
24030;SDS011;12240;51.142;22.486;2022-11-25T06:40:11;70.90;;;18.83;;
24030;SDS011;12240;51.142;22.486;2022-11-25T06:42:39;62.38;;;16.73;;
24030;SDS011;12240;51.142;22.486;2022-11-25T06:45:09;66.43;;;17.95;;
24030;SDS011;12240;51.142;22.486;2022-11-25T06:47:40;63.63;;;17.60;;
24030;SDS011;12240;51.142;22.486;2022-11-25T06:50:08;64.60;;;18.25;;
24030;SDS011;12240;51.142;22.486;2022-11-25T06:52:37;54.33;;;17.33;;
24030;SDS011;12240;51.142;22.486;2022-11-25T06:55:05;57.97;;;16.85;;
24030;SDS011;12240;51.142;22.486;2022-11-25T06:57:34;55.58;;;16.15;;
24030;SDS011;12240;51.142;22.486;2022-11-25T07:00:02;58.17;;;18.45;;
24030;SDS011;12240;51.142;22.486;2022-11-25T07:02:31;62.28;;;17.23;;
24030;SDS011;12240;51.142;22.486;2022-11-25T07:05:07;61.25;;;17.75;;
24030;SDS011;12240;51.142;22.486;2022-11-25T07:07:35;55.60;;;17.65;;
24030;SDS011;12240;51.142;22.486;2022-11-25T07:10:04;64.88;;;18.30;;
24030;SDS011;12240;51.142;22.486;2022-11-25T07:12:32;54.33;;;16.15;;
24030;SDS011;12240;51.142;22.486;2022-11-25T07:15:01;50.47;;;16.05;;
24030;SDS011;12240;51.142;22.486;2022-11-25T07:17:29;58.35;;;17.30;;
24030;SDS011;12240;51.142;22.486;2022-11-25T07:19:58;56.42;;;16.48;;
24030;SDS011;12240;51.142;22.486;2022-11-25T07:22:26;55.25;;;15.88;;
24030;SDS011;12240;51.142;22.486;2022-11-25T07:24:54;54.95;;;15.48;;
24030;SDS011;12240;51.142;22.486;2022-11-25T07:27:23;61.30;;;17.63;;
24030;SDS011;12240;51.142;22.486;2022-11-25T07:29:51;54.08;;;16.58;;
24030;SDS011;12240;51.142;22.486;2022-11-25T07:32:39;51.55;;;15.95;;
24030;SDS011;12240;51.142;22.486;2022-11-25T07:35:07;60.95;;;17.02;;
24030;SDS011;12240;51.142;22.486;2022-11-25T07:37:35;59.05;;;16.98;;
24030;SDS011;12240;51.142;22.486;2022-11-25T07:40:03;63.90;;;17.58;;
24030;SDS011;12240;51.142;22.486;2022-11-25T07:42:32;51.42;;;16.90;;
24030;SDS011;12240;51.142;22.486;2022-11-25T07:45:01;41.13;;;12.50;;
24030;SDS011;12240;51.142;22.486;2022-11-25T07:47:44;39.40;;;11.48;;
24030;SDS011;12240;51.142;22.486;2022-11-25T07:50:12;29.00;;;9.60;;
24030;SDS011;12240;51.142;22.486;2022-11-25T07:52:40;30.58;;;9.43;;
24030;SDS011;12240;51.142;22.486;2022-11-25T07:55:08;28.65;;;8.82;;
24030;SDS011;12240;51.142;22.486;2022-11-25T07:57:37;30.30;;;8.55;;
24030;SDS011;12240;51.142;22.486;2022-11-25T08:00:06;26.92;;;8.45;;
24030;SDS011;12240;51.142;22.486;2022-11-25T08:02:40;27.38;;;9.07;;
24030;SDS011;12240;51.142;22.486;2022-11-25T08:05:08;26.55;;;8.20;;
24030;SDS011;12240;51.142;22.486;2022-11-25T08:07:37;22.80;;;7.65;;
24030;SDS011;12240;51.142;22.486;2022-11-25T08:10:05;27.80;;;9.68;;
24030;SDS011;12240;51.142;22.486;2022-11-25T08:12:34;27.25;;;9.90;;
24030;SDS011;12240;51.142;22.486;2022-11-25T08:15:02;31.30;;;10.43;;
24030;SDS011;12240;51.142;22.486;2022-11-25T08:17:30;31.48;;;10.02;;
24030;SDS011;12240;51.142;22.486;2022-11-25T08:19:59;29.25;;;9.82;;
24030;SDS011;12240;51.142;22.486;2022-11-25T08:22:27;28.52;;;8.52;;
24030;SDS011;12240;51.142;22.486;2022-11-25T08:24:55;25.48;;;8.23;;
24030;SDS011;12240;51.142;22.486;2022-11-25T08:27:24;26.77;;;8.73;;
24030;SDS011;12240;51.142;22.486;2022-11-25T08:29:53;20.92;;;7.55;;
24030;SDS011;12240;51.142;22.486;2022-11-25T08:32:21;23.48;;;7.65;;
24030;SDS011;12240;51.142;22.486;2022-11-25T08:34:49;22.63;;;7.68;;
24030;SDS011;12240;51.142;22.486;2022-11-25T08:37:17;25.13;;;8.05;;
24030;SDS011;12240;51.142;22.486;2022-11-25T08:39:47;23.88;;;8.20;;
24030;SDS011;12240;51.142;22.486;2022-11-25T08:42:19;22.08;;;8.15;;
24030;SDS011;12240;51.142;22.486;2022-11-25T08:44:51;21.48;;;8.35;;
24030;SDS011;12240;51.142;22.486;2022-11-25T08:47:22;24.27;;;8.77;;
24030;SDS011;12240;51.142;22.486;2022-11-25T08:49:51;20.67;;;8.07;;
24030;SDS011;12240;51.142;22.486;2022-11-25T08:52:20;26.42;;;8.73;;
24030;SDS011;12240;51.142;22.486;2022-11-25T08:54:49;26.88;;;9.00;;
24030;SDS011;12240;51.142;22.486;2022-11-25T08:57:17;21.98;;;7.75;;
24030;SDS011;12240;51.142;22.486;2022-11-25T08:59:45;18.40;;;7.00;;
24030;SDS011;12240;51.142;22.486;2022-11-25T09:02:14;24.55;;;8.25;;
24030;SDS011;12240;51.142;22.486;2022-11-25T09:04:44;21.85;;;7.93;;
24030;SDS011;12240;51.142;22.486;2022-11-25T09:07:12;21.75;;;8.77;;
24030;SDS011;12240;51.142;22.486;2022-11-25T09:09:40;21.05;;;7.25;;
24030;SDS011;12240;51.142;22.486;2022-11-25T09:12:08;17.42;;;6.93;;
24030;SDS011;12240;51.142;22.486;2022-11-25T09:14:36;22.40;;;7.57;;
24030;SDS011;12240;51.142;22.486;2022-11-25T09:17:07;17.17;;;7.00;;
24030;SDS011;12240;51.142;22.486;2022-11-25T09:19:37;19.60;;;7.70;;
24030;SDS011;12240;51.142;22.486;2022-11-25T09:22:05;22.52;;;7.80;;
24030;SDS011;12240;51.142;22.486;2022-11-25T09:24:34;18.05;;;7.40;;
24030;SDS011;12240;51.142;22.486;2022-11-25T09:27:02;20.80;;;7.80;;
24030;SDS011;12240;51.142;22.486;2022-11-25T09:29:31;23.42;;;8.35;;
24030;SDS011;12240;51.142;22.486;2022-11-25T09:31:59;20.05;;;7.75;;
24030;SDS011;12240;51.142;22.486;2022-11-25T09:34:27;21.20;;;8.57;;
24030;SDS011;12240;51.142;22.486;2022-11-25T09:36:55;24.75;;;8.82;;
24030;SDS011;12240;51.142;22.486;2022-11-25T09:39:23;22.33;;;8.10;;
24030;SDS011;12240;51.142;22.486;2022-11-25T09:45:19;26.23;;;9.05;;
24030;SDS011;12240;51.142;22.486;2022-11-25T09:56:59;16.90;;;6.13;;
24030;SDS011;12240;51.142;22.486;2022-11-25T10:00:02;20.25;;;7.57;;
24030;SDS011;12240;51.142;22.486;2022-11-25T10:02:40;20.77;;;6.70;;
24030;SDS011;12240;51.142;22.486;2022-11-25T10:05:27;15.80;;;6.22;;
24030;SDS011;12240;51.142;22.486;2022-11-25T10:08:09;18.73;;;7.38;;
24030;SDS011;12240;51.142;22.486;2022-11-25T10:10:43;18.27;;;7.40;;
24030;SDS011;12240;51.142;22.486;2022-11-25T10:16:13;18.67;;;6.95;;
24030;SDS011;12240;51.142;22.486;2022-11-25T10:19:14;17.08;;;6.97;;
24030;SDS011;12240;51.142;22.486;2022-11-25T10:24:56;19.80;;;7.68;;
24030;SDS011;12240;51.142;22.486;2022-11-25T10:30:23;17.58;;;6.75;;
24030;SDS011;12240;51.142;22.486;2022-11-25T10:38:28;24.48;;;8.57;;
24030;SDS011;12240;51.142;22.486;2022-11-25T10:41:24;24.17;;;8.05;;
24030;SDS011;12240;51.142;22.486;2022-11-25T10:44:00;22.65;;;8.32;;
24030;SDS011;12240;51.142;22.486;2022-11-25T10:55:56;24.45;;;8.23;;
24030;SDS011;12240;51.142;22.486;2022-11-25T10:58:37;23.90;;;8.55;;
24030;SDS011;12240;51.142;22.486;2022-11-25T11:01:20;25.85;;;8.95;;
24030;SDS011;12240;51.142;22.486;2022-11-25T11:03:52;35.90;;;11.77;;
24030;SDS011;12240;51.142;22.486;2022-11-25T11:06:38;32.45;;;9.95;;
24030;SDS011;12240;51.142;22.486;2022-11-25T11:12:12;31.58;;;10.15;;
24030;SDS011;12240;51.142;22.486;2022-11-25T11:14:52;28.27;;;10.68;;
24030;SDS011;12240;51.142;22.486;2022-11-25T11:17:39;28.92;;;9.70;;
24030;SDS011;12240;51.142;22.486;2022-11-25T11:22:44;27.55;;;10.23;;
24030;SDS011;12240;51.142;22.486;2022-11-25T11:25:36;32.38;;;10.55;;
24030;SDS011;12240;51.142;22.486;2022-11-25T11:31:00;29.48;;;9.52;;
24030;SDS011;12240;51.142;22.486;2022-11-25T11:33:42;28.55;;;9.88;;
24030;SDS011;12240;51.142;22.486;2022-11-25T11:45:13;30.15;;;10.45;;
24030;SDS011;12240;51.142;22.486;2022-11-25T11:48:06;29.77;;;10.47;;
24030;SDS011;12240;51.142;22.486;2022-11-25T12:02:18;29.92;;;10.88;;
24030;SDS011;12240;51.142;22.486;2022-11-25T12:07:46;34.17;;;11.02;;
24030;SDS011;12240;51.142;22.486;2022-11-25T12:16:11;33.08;;;12.07;;
24030;SDS011;12240;51.142;22.486;2022-11-25T12:18:44;33.88;;;12.18;;
24030;SDS011;12240;51.142;22.486;2022-11-25T12:21:41;29.40;;;11.45;;
24030;SDS011;12240;51.142;22.486;2022-11-25T12:27:33;31.83;;;11.13;;
24030;SDS011;12240;51.142;22.486;2022-11-25T12:30:13;28.75;;;10.25;;
24030;SDS011;12240;51.142;22.486;2022-11-25T12:35:35;29.08;;;10.50;;
24030;SDS011;12240;51.142;22.486;2022-11-25T12:38:55;32.25;;;10.00;;
24030;SDS011;12240;51.142;22.486;2022-11-25T12:41:40;33.15;;;11.30;;
24030;SDS011;12240;51.142;22.486;2022-11-25T12:47:04;29.88;;;11.25;;
24030;SDS011;12240;51.142;22.486;2022-11-25T12:49:41;37.55;;;12.95;;
24030;SDS011;12240;51.142;22.486;2022-11-25T12:57:58;36.22;;;11.90;;
24030;SDS011;12240;51.142;22.486;2022-11-25T13:03:38;39.83;;;12.65;;
24030;SDS011;12240;51.142;22.486;2022-11-25T13:18:18;27.90;;;10.02;;
24030;SDS011;12240;51.142;22.486;2022-11-25T13:20:52;34.00;;;10.88;;
24030;SDS011;12240;51.142;22.486;2022-11-25T13:23:24;36.90;;;11.93;;
24030;SDS011;12240;51.142;22.486;2022-11-25T13:29:06;35.50;;;12.13;;
24030;SDS011;12240;51.142;22.486;2022-11-25T13:34:27;33.38;;;12.30;;
24030;SDS011;12240;51.142;22.486;2022-11-25T13:42:56;35.40;;;11.98;;
24030;SDS011;12240;51.142;22.486;2022-11-25T13:45:31;32.45;;;10.70;;
24030;SDS011;12240;51.142;22.486;2022-11-25T13:50:44;35.05;;;12.95;;
24030;SDS011;12240;51.142;22.486;2022-11-25T13:53:35;38.45;;;12.73;;
24030;SDS011;12240;51.142;22.486;2022-11-25T13:56:24;38.22;;;12.00;;
24030;SDS011;12240;51.142;22.486;2022-11-25T14:01:40;31.70;;;11.07;;
24030;SDS011;12240;51.142;22.486;2022-11-25T14:04:46;31.50;;;11.48;;
24030;SDS011;12240;51.142;22.486;2022-11-25T14:22:11;29.15;;;11.25;;
24030;SDS011;12240;51.142;22.486;2022-11-25T14:25:12;33.75;;;11.75;;
24030;SDS011;12240;51.142;22.486;2022-11-25T14:27:59;36.80;;;11.27;;
24030;SDS011;12240;51.142;22.486;2022-11-25T14:31:05;35.47;;;12.02;;
24030;SDS011;12240;51.142;22.486;2022-11-25T14:33:43;35.83;;;12.10;;
24030;SDS011;12240;51.142;22.486;2022-11-25T14:36:26;34.95;;;11.10;;
24030;SDS011;12240;51.142;22.486;2022-11-25T14:39:20;29.70;;;9.82;;
24030;SDS011;12240;51.142;22.486;2022-11-25T14:44:51;32.08;;;11.38;;
24030;SDS011;12240;51.142;22.486;2022-11-25T14:47:26;32.67;;;11.40;;
24030;SDS011;12240;51.142;22.486;2022-11-25T14:50:05;35.63;;;10.93;;
24030;SDS011;12240;51.142;22.486;2022-11-25T14:53:08;34.13;;;12.30;;
24030;SDS011;12240;51.142;22.486;2022-11-25T14:55:37;32.95;;;11.45;;
24030;SDS011;12240;51.142;22.486;2022-11-25T14:58:05;32.78;;;10.55;;
24030;SDS011;12240;51.142;22.486;2022-11-25T15:00:48;35.53;;;10.43;;
24030;SDS011;12240;51.142;22.486;2022-11-25T15:03:30;33.30;;;11.38;;
24030;SDS011;12240;51.142;22.486;2022-11-25T15:06:04;32.40;;;11.07;;
24030;SDS011;12240;51.142;22.486;2022-11-25T15:08:37;32.08;;;10.27;;
24030;SDS011;12240;51.142;22.486;2022-11-25T15:11:13;31.27;;;11.25;;
24030;SDS011;12240;51.142;22.486;2022-11-25T15:13:46;38.90;;;11.98;;
24030;SDS011;12240;51.142;22.486;2022-11-25T15:16:32;40.55;;;12.43;;
24030;SDS011;12240;51.142;22.486;2022-11-25T15:19:05;38.08;;;13.52;;
24030;SDS011;12240;51.142;22.486;2022-11-25T15:21:44;39.65;;;13.02;;
24030;SDS011;12240;51.142;22.486;2022-11-25T15:24:41;38.80;;;12.60;;
24030;SDS011;12240;51.142;22.486;2022-11-25T15:29:53;39.97;;;12.45;;
24030;SDS011;12240;51.142;22.486;2022-11-25T15:32:24;35.53;;;12.73;;
24030;SDS011;12240;51.142;22.486;2022-11-25T15:34:54;41.85;;;13.98;;
24030;SDS011;12240;51.142;22.486;2022-11-25T15:37:26;51.38;;;16.80;;
24030;SDS011;12240;51.142;22.486;2022-11-25T15:43:06;43.90;;;15.23;;
24030;SDS011;12240;51.142;22.486;2022-11-25T15:45:49;49.05;;;16.67;;
24030;SDS011;12240;51.142;22.486;2022-11-25T15:48:27;41.97;;;16.45;;
24030;SDS011;12240;51.142;22.486;2022-11-25T15:51:02;41.05;;;16.02;;
24030;SDS011;12240;51.142;22.486;2022-11-25T15:53:41;45.60;;;15.43;;
24030;SDS011;12240;51.142;22.486;2022-11-25T15:56:14;44.22;;;17.23;;
24030;SDS011;12240;51.142;22.486;2022-11-25T15:58:49;59.95;;;21.70;;
24030;SDS011;12240;51.142;22.486;2022-11-25T16:03:49;55.78;;;21.20;;
24030;SDS011;12240;51.142;22.486;2022-11-25T16:06:25;52.63;;;18.88;;
24030;SDS011;12240;51.142;22.486;2022-11-25T16:08:59;50.25;;;17.58;;
24030;SDS011;12240;51.142;22.486;2022-11-25T16:11:42;54.45;;;18.73;;
24030;SDS011;12240;51.142;22.486;2022-11-25T16:14:27;54.60;;;19.77;;
24030;SDS011;12240;51.142;22.486;2022-11-25T16:17:00;67.45;;;20.95;;
24030;SDS011;12240;51.142;22.486;2022-11-25T16:19:40;62.22;;;21.27;;
24030;SDS011;12240;51.142;22.486;2022-11-25T16:22:15;69.72;;;22.95;;
24030;SDS011;12240;51.142;22.486;2022-11-25T16:24:47;69.03;;;24.23;;
24030;SDS011;12240;51.142;22.486;2022-11-25T16:27:28;76.25;;;23.90;;
24030;SDS011;12240;51.142;22.486;2022-11-25T16:32:32;61.60;;;21.73;;
24030;SDS011;12240;51.142;22.486;2022-11-25T16:35:19;73.13;;;24.90;;
24030;SDS011;12240;51.142;22.486;2022-11-25T16:37:48;50.13;;;17.17;;
24030;SDS011;12240;51.142;22.486;2022-11-25T16:40:17;45.85;;;16.30;;
24030;SDS011;12240;51.142;22.486;2022-11-25T16:42:45;42.03;;;15.73;;
24030;SDS011;12240;51.142;22.486;2022-11-25T16:45:17;56.40;;;17.05;;
24030;SDS011;12240;51.142;22.486;2022-11-25T16:47:48;55.17;;;17.55;;
24030;SDS011;12240;51.142;22.486;2022-11-25T16:50:17;48.03;;;16.23;;
24030;SDS011;12240;51.142;22.486;2022-11-25T16:52:46;53.38;;;17.65;;
24030;SDS011;12240;51.142;22.486;2022-11-25T16:55:14;54.42;;;19.02;;
24030;SDS011;12240;51.142;22.486;2022-11-25T16:57:44;64.57;;;19.17;;
24030;SDS011;12240;51.142;22.486;2022-11-25T17:00:13;55.25;;;18.90;;
24030;SDS011;12240;51.142;22.486;2022-11-25T17:02:43;57.50;;;18.58;;
24030;SDS011;12240;51.142;22.486;2022-11-25T17:07:49;63.80;;;18.60;;
24030;SDS011;12240;51.142;22.486;2022-11-25T17:10:18;66.53;;;22.17;;
24030;SDS011;12240;51.142;22.486;2022-11-25T17:12:47;73.28;;;22.88;;
24030;SDS011;12240;51.142;22.486;2022-11-25T17:15:17;73.75;;;24.52;;
24030;SDS011;12240;51.142;22.486;2022-11-25T17:17:49;67.50;;;22.70;;
24030;SDS011;12240;51.142;22.486;2022-11-25T17:20:19;81.60;;;24.33;;
24030;SDS011;12240;51.142;22.486;2022-11-25T17:22:51;79.63;;;24.92;;
24030;SDS011;12240;51.142;22.486;2022-11-25T17:25:21;80.88;;;23.65;;
24030;SDS011;12240;51.142;22.486;2022-11-25T17:27:57;69.78;;;22.75;;
24030;SDS011;12240;51.142;22.486;2022-11-25T17:30:26;75.97;;;22.58;;
24030;SDS011;12240;51.142;22.486;2022-11-25T17:33:02;85.55;;;24.75;;
24030;SDS011;12240;51.142;22.486;2022-11-25T17:35:33;73.68;;;24.25;;
24030;SDS011;12240;51.142;22.486;2022-11-25T17:38:01;85.70;;;25.20;;